Time;durP1;ratioP1;P1;durP2;ratioP2;P2;SDS_P1;SDS_P2;PMS_P1;PMS_P2;Temp;Humidity;BMP_temperature;BMP_pressure;BME280_temperature;BME280_humidity;BME280_pressure;Samples;Min_cycle;Max_cycle;Signal;HPM_P1;HPM_P2
2022/07/10 00:01:32;;;;;;;4.63;0.50;;;14.70;99.90;;;;;;4988178;28;20042;-43
2022/07/10 00:04:01;;;;;;;4.20;0.50;;;14.70;99.90;;;;;;4987949;28;20070;-43
2022/07/10 00:06:26;;;;;;;3.80;0.63;;;14.70;99.90;;;;;;4984693;28;20030;-43
2022/07/10 00:08:52;;;;;;;4.05;1.00;;;14.60;99.90;;;;;;4989576;28;20038;-43
2022/07/10 00:11:17;;;;;;;3.92;0.60;;;14.60;99.90;;;;;;4986025;28;20500;-46
2022/07/10 00:13:43;;;;;;;4.35;0.60;;;14.50;99.90;;;;;;4983989;28;20042;-46
2022/07/10 00:16:09;;;;;;;4.95;0.90;;;14.50;99.90;;;;;;4988625;28;20045;-43
2022/07/10 00:18:35;;;;;;;5.25;0.57;;;14.50;99.90;;;;;;4985890;28;20034;-47
2022/07/10 00:21:01;;;;;;;6.32;0.55;;;14.40;99.90;;;;;;4982707;28;20081;-43
2022/07/10 00:23:26;;;;;;;5.03;0.85;;;14.40;99.90;;;;;;4984213;28;20046;-42
2022/07/10 00:25:52;;;;;;;3.85;0.60;;;14.40;99.90;;;;;;4979365;28;20085;-46
2022/07/10 00:28:18;;;;;;;6.65;0.70;;;14.30;99.90;;;;;;4981358;28;20101;-43
2022/07/10 00:30:43;;;;;;;3.13;0.60;;;14.30;99.90;;;;;;4984236;28;21564;-46
2022/07/10 00:33:09;;;;;;;6.53;0.50;;;14.20;99.90;;;;;;4985577;28;20480;-42
2022/07/10 00:35:34;;;;;;;8.25;1.00;;;14.20;99.90;;;;;;4988553;28;20075;-42
2022/07/10 00:38:00;;;;;;;1.92;0.35;;;14.20;99.90;;;;;;4979830;28;20038;-42
2022/07/10 00:40:26;;;;;;;3.03;0.50;;;14.20;99.90;;;;;;4983390;28;20050;-43
2022/07/10 00:42:52;;;;;;;3.22;0.80;;;14.20;99.90;;;;;;4985028;28;20071;-42
2022/07/10 00:45:17;;;;;;;2.63;0.40;;;14.10;99.90;;;;;;4984974;28;20091;-42
2022/07/10 00:47:43;;;;;;;2.17;0.40;;;14.10;99.90;;;;;;4985427;28;20118;-45
2022/07/10 00:50:09;;;;;;;3.55;0.45;;;14.10;99.90;;;;;;4983247;28;20134;-43
2022/07/10 00:52:38;;;;;;;5.95;0.70;;;14.10;99.90;;;;;;4980048;28;20161;-43
2022/07/10 00:55:08;;;;;;;6.65;0.40;;;14.00;99.90;;;;;;4985729;28;20444;-42
2022/07/10 00:57:35;;;;;;;4.28;0.50;;;14.00;99.90;;;;;;4985338;28;20499;-43
2022/07/10 01:00:01;;;;;;;6.63;0.70;;;13.90;99.90;;;;;;4983237;28;20049;-43
2022/07/10 01:02:27;;;;;;;3.58;0.52;;;13.80;99.90;;;;;;4977435;28;20698;-44
2022/07/10 01:04:52;;;;;;;6.13;0.75;;;13.80;99.90;;;;;;4981222;28;20105;-42
2022/07/10 01:07:18;;;;;;;2.83;0.50;;;13.80;99.90;;;;;;4982796;28;20121;-42
2022/07/10 01:09:44;;;;;;;4.97;0.68;;;13.80;99.90;;;;;;4983974;28;20039;-42
2022/07/10 01:12:11;;;;;;;5.07;0.60;;;13.70;99.90;;;;;;4983132;28;20089;-41
2022/07/10 01:14:39;;;;;;;4.00;0.80;;;13.60;99.90;;;;;;4983820;28;20190;-43
2022/07/10 01:17:06;;;;;;;4.88;0.43;;;13.60;99.90;;;;;;4980582;28;20604;-42
2022/07/10 01:19:32;;;;;;;1.55;0.60;;;13.50;99.90;;;;;;4982277;28;20049;-43
2022/07/10 01:21:57;;;;;;;3.53;0.80;;;13.50;99.90;;;;;;4978103;28;20034;-43
2022/07/10 01:24:24;;;;;;;3.67;0.65;;;13.40;99.90;;;;;;4979719;28;20397;-45
2022/07/10 01:26:49;;;;;;;4.80;0.50;;;13.40;99.90;;;;;;4986984;28;20113;-42
2022/07/10 01:29:15;;;;;;;1.80;0.40;;;13.40;99.90;;;;;;4985912;28;20139;-44
2022/07/10 01:31:41;;;;;;;6.47;1.10;;;13.30;99.90;;;;;;4983036;28;20426;-43
2022/07/10 01:34:09;;;;;;;3.78;0.80;;;13.30;99.90;;;;;;4979839;28;20541;-43
2022/07/10 01:36:35;;;;;;;4.88;0.52;;;13.30;99.90;;;;;;4985220;28;20404;-44
2022/07/10 01:39:01;;;;;;;4.32;0.40;;;13.30;99.90;;;;;;4982840;28;20233;-45
2022/07/10 01:41:27;;;;;;;5.47;0.65;;;13.20;99.90;;;;;;4984711;28;20145;-44
2022/07/10 01:43:53;;;;;;;4.60;0.65;;;13.20;99.90;;;;;;4984659;28;20042;-43
2022/07/10 01:46:20;;;;;;;5.88;0.60;;;13.20;99.90;;;;;;4983758;28;20031;-43
2022/07/10 01:48:45;;;;;;;3.88;0.57;;;13.20;99.90;;;;;;4981881;28;20057;-42
2022/07/10 01:51:12;;;;;;;4.05;1.35;;;13.20;99.90;;;;;;4978033;28;20038;-43
2022/07/10 01:53:38;;;;;;;4.07;0.40;;;13.20;99.90;;;;;;4984242;28;20038;-44
2022/07/10 01:56:09;;;;;;;0.82;0.40;;;13.10;99.90;;;;;;4984240;28;20524;-47
2022/07/10 01:58:36;;;;;;;3.00;0.77;;;13.10;99.90;;;;;;4984636;28;20500;-44
2022/07/10 02:01:02;;;;;;;5.13;0.70;;;13.10;99.90;;;;;;4978987;28;20101;-43
2022/07/10 02:06:12;;;;;;;4.15;0.45;;;13.10;99.90;;;;;;4985233;28;20046;-48
2022/07/10 02:08:38;;;;;;;1.85;0.32;;;13.10;99.90;;;;;;4978915;28;20466;-45
2022/07/10 02:11:04;;;;;;;3.88;0.50;;;13.10;99.90;;;;;;4981856;28;20034;-44
2022/07/10 02:13:30;;;;;;;4.10;0.60;;;13.10;99.90;;;;;;4984613;28;20468;-43
2022/07/10 02:15:56;;;;;;;3.20;0.80;;;13.10;99.90;;;;;;4982352;28;20425;-43
2022/07/10 02:18:22;;;;;;;4.07;0.73;;;13.00;99.90;;;;;;4983901;28;20117;-43
2022/07/10 02:20:47;;;;;;;2.97;0.70;;;13.00;99.90;;;;;;4984622;28;20133;-44
2022/07/10 02:23:13;;;;;;;1.50;0.40;;;13.00;99.90;;;;;;4981365;28;20042;-42
2022/07/10 02:25:39;;;;;;;6.35;0.50;;;13.00;99.90;;;;;;4983025;28;20046;-42
2022/07/10 02:28:05;;;;;;;2.10;0.52;;;13.00;99.90;;;;;;4977261;28;20074;-43
2022/07/10 02:30:30;;;;;;;5.45;1.30;;;12.90;99.90;;;;;;4980906;28;20050;-46
2022/07/10 02:32:57;;;;;;;3.35;0.50;;;12.90;99.90;;;;;;4982148;28;20070;-47
2022/07/10 02:35:23;;;;;;;3.88;0.65;;;12.90;99.90;;;;;;4980313;28;20403;-43
2022/07/10 02:37:48;;;;;;;1.77;0.57;;;12.90;99.90;;;;;;4986137;28;20097;-47
2022/07/10 02:40:14;;;;;;;2.88;0.50;;;12.80;99.90;;;;;;4985934;28;20070;-44
2022/07/10 02:42:40;;;;;;;4.40;0.40;;;12.80;99.90;;;;;;4984982;28;20038;-43
2022/07/10 02:45:07;;;;;;;4.88;0.57;;;12.80;99.90;;;;;;4982451;28;20133;-46
2022/07/10 02:47:33;;;;;;;5.30;0.60;;;12.80;99.90;;;;;;4982480;28;20049;-45
2022/07/10 02:49:59;;;;;;;2.60;0.50;;;12.80;99.90;;;;;;4985841;28;20038;-44
2022/07/10 02:52:25;;;;;;;2.35;0.40;;;12.80;99.90;;;;;;4981600;28;20046;-43
2022/07/10 02:54:51;;;;;;;7.55;1.10;;;12.70;99.90;;;;;;4979259;28;20150;-46
2022/07/10 02:57:17;;;;;;;2.58;0.50;;;12.70;99.90;;;;;;4982584;28;20043;-42
2022/07/10 02:59:43;;;;;;;3.25;0.80;;;12.70;99.90;;;;;;4984002;28;20132;-42
2022/07/10 03:02:09;;;;;;;5.03;0.50;;;12.70;99.90;;;;;;4974488;28;20492;-42
2022/07/10 03:04:34;;;;;;;4.03;0.70;;;12.70;99.90;;;;;;4980320;28;20062;-43
2022/07/10 03:07:00;;;;;;;5.55;0.55;;;12.70;99.90;;;;;;4984065;28;20046;-44
2022/07/10 03:09:26;;;;;;;3.63;0.60;;;12.60;99.90;;;;;;4983993;28;20046;-43
2022/07/10 03:11:52;;;;;;;4.15;0.57;;;12.70;99.90;;;;;;4982536;28;20559;-47
2022/07/10 03:14:18;;;;;;;4.15;1.10;;;12.70;99.90;;;;;;4987415;28;20034;-45
2022/07/10 03:16:43;;;;;;;3.55;0.52;;;12.70;99.90;;;;;;4987924;28;20057;-45
2022/07/10 03:19:09;;;;;;;3.78;0.55;;;12.80;99.90;;;;;;4985032;28;20074;-44
2022/07/10 03:21:35;;;;;;;5.03;0.88;;;12.90;99.90;;;;;;4985780;28;20045;-42
2022/07/10 03:24:01;;;;;;;3.45;0.35;;;12.90;99.90;;;;;;4988171;28;20141;-42
2022/07/10 03:26:29;;;;;;;4.53;0.50;;;13.00;99.90;;;;;;4985884;28;20041;-43
2022/07/10 03:28:55;;;;;;;7.28;0.60;;;13.10;99.90;;;;;;4983412;28;20125;-43
2022/07/10 03:31:21;;;;;;;5.10;0.80;;;13.10;99.90;;;;;;4981952;28;20046;-43
2022/07/10 03:33:47;;;;;;;4.55;0.40;;;13.10;99.90;;;;;;4988436;28;20045;-44
2022/07/10 03:36:15;;;;;;;2.92;0.40;;;13.20;99.90;;;;;;4985682;28;20038;-43
2022/07/10 03:38:41;;;;;;;3.13;0.82;;;13.20;99.90;;;;;;4986652;28;20586;-45
2022/07/10 03:41:07;;;;;;;5.55;0.50;;;13.30;99.90;;;;;;4985956;28;20049;-44
2022/07/10 03:43:32;;;;;;;4.93;0.70;;;13.40;99.90;;;;;;4985996;28;20402;-43
2022/07/10 03:45:58;;;;;;;3.63;0.45;;;13.40;99.90;;;;;;4985850;28;20078;-47
2022/07/10 03:48:24;;;;;;;6.18;0.80;;;13.50;99.90;;;;;;4982748;28;20471;-47
2022/07/10 03:50:51;;;;;;;3.08;0.40;;;13.50;99.90;;;;;;4984813;28;20075;-43
2022/07/10 03:53:17;;;;;;;6.25;0.60;;;13.60;99.90;;;;;;4983355;28;20032;-43
2022/07/10 03:55:43;;;;;;;3.45;0.45;;;13.60;99.90;;;;;;4986906;28;20065;-43
2022/07/10 03:58:08;;;;;;;4.68;0.47;;;13.70;99.90;;;;;;4990416;28;20083;-43
2022/07/10 04:00:37;;;;;;;6.07;0.60;;;13.70;99.90;;;;;;4985411;28;20039;-42
2022/07/10 04:03:05;;;;;;;6.35;0.68;;;13.70;99.90;;;;;;4987251;28;20101;-43
2022/07/10 04:05:31;;;;;;;1.88;0.30;;;13.70;99.90;;;;;;4981315;28;20065;-44
2022/07/10 04:07:58;;;;;;;5.60;0.47;;;13.80;99.90;;;;;;4988321;28;20101;-41
2022/07/10 04:10:25;;;;;;;1.75;0.30;;;13.80;99.90;;;;;;4985231;28;20621;-43
2022/07/10 04:12:51;;;;;;;4.80;0.38;;;13.80;99.90;;;;;;4985356;28;20499;-42
2022/07/10 04:15:17;;;;;;;5.70;0.57;;;13.90;99.90;;;;;;4987212;28;20093;-42
2022/07/10 04:17:43;;;;;;;5.05;0.40;;;13.90;99.90;;;;;;4988280;28;20042;-43
2022/07/10 04:20:09;;;;;;;5.32;0.50;;;14.00;99.90;;;;;;4986153;28;20129;-42
2022/07/10 04:22:35;;;;;;;2.92;0.50;;;14.00;99.90;;;;;;4986163;28;20088;-47
2022/07/10 04:25:01;;;;;;;6.05;0.65;;;14.10;99.90;;;;;;4981338;28;20043;-43
2022/07/10 04:27:27;;;;;;;4.85;0.57;;;14.10;99.90;;;;;;4986499;28;20413;-42
2022/07/10 04:29:53;;;;;;;2.42;0.70;;;14.20;99.90;;;;;;4985363;28;20121;-42
2022/07/10 04:32:18;;;;;;;4.57;0.63;;;14.30;99.90;;;;;;4999535;28;20468;-42
2022/07/10 04:34:44;;;;;;;5.07;0.52;;;14.30;99.90;;;;;;4984986;28;20413;-42
2022/07/10 04:37:10;;;;;;;11.45;0.52;;;14.30;99.90;;;;;;4985302;28;20424;-43
2022/07/10 04:39:37;;;;;;;3.60;0.43;;;14.30;99.90;;;;;;4983161;28;20499;-47
2022/07/10 04:42:04;;;;;;;3.75;0.45;;;14.30;99.90;;;;;;4985998;28;20043;-44
2022/07/10 04:44:29;;;;;;;4.20;0.57;;;14.30;99.90;;;;;;4986783;28;20072;-43
2022/07/10 04:46:55;;;;;;;5.40;0.73;;;14.40;99.90;;;;;;4987264;28;20484;-43
2022/07/10 04:49:21;;;;;;;3.30;0.52;;;14.40;99.90;;;;;;4987184;28;20052;-42
2022/07/10 04:51:47;;;;;;;2.13;0.70;;;14.40;99.90;;;;;;4984248;28;20416;-45
2022/07/10 04:54:12;;;;;;;4.70;0.68;;;14.40;99.90;;;;;;4982943;28;20548;-42
2022/07/10 04:56:38;;;;;;;2.90;0.52;;;14.40;99.90;;;;;;5003201;28;20046;-48
2022/07/10 04:59:04;;;;;;;6.13;0.60;;;14.40;99.90;;;;;;4986735;28;20391;-42
2022/07/10 05:01:30;;;;;;;4.82;1.02;;;14.40;99.90;;;;;;4985342;28;20038;-42
2022/07/10 05:03:56;;;;;;;4.90;0.55;;;14.40;99.90;;;;;;4982422;28;20042;-43
2022/07/10 05:06:21;;;;;;;4.70;0.98;;;14.50;99.90;;;;;;4987905;28;20046;-45
2022/07/10 05:08:47;;;;;;;5.60;1.15;;;14.50;99.90;;;;;;4980734;28;20034;-43
2022/07/10 05:11:13;;;;;;;2.75;0.70;;;14.50;99.90;;;;;;4986468;28;20395;-43
2022/07/10 05:13:38;;;;;;;4.50;1.08;;;14.50;99.90;;;;;;4981723;28;20043;-46
2022/07/10 05:16:05;;;;;;;8.82;1.20;;;14.60;99.90;;;;;;4987778;28;20038;-44
2022/07/10 05:18:31;;;;;;;7.22;1.42;;;14.60;99.90;;;;;;4980929;28;20097;-42
2022/07/10 05:20:57;;;;;;;3.85;0.82;;;14.70;99.90;;;;;;4984053;28;20049;-43
2022/07/10 05:23:23;;;;;;;6.13;0.70;;;14.80;99.90;;;;;;4980582;28;20050;-42
2022/07/10 05:25:49;;;;;;;5.00;0.85;;;14.80;99.90;;;;;;4984012;28;20376;-44
2022/07/10 05:28:15;;;;;;;4.93;0.80;;;14.90;99.90;;;;;;4980924;28;20039;-43
2022/07/10 05:30:41;;;;;;;5.07;0.80;;;15.00;99.90;;;;;;4982828;28;20522;-44
2022/07/10 05:33:07;;;;;;;3.22;0.75;;;15.00;99.90;;;;;;4984945;28;20038;-43
2022/07/10 05:35:33;;;;;;;6.30;0.75;;;15.10;99.90;;;;;;4978741;28;20149;-43
2022/07/10 05:37:59;;;;;;;4.68;0.80;;;15.20;99.90;;;;;;4982591;28;20066;-42
2022/07/10 05:40:25;;;;;;;5.18;0.60;;;15.20;99.90;;;;;;4986078;28;20049;-42
2022/07/10 05:42:51;;;;;;;5.28;1.38;;;15.20;99.90;;;;;;4979733;28;20046;-42
2022/07/10 05:45:17;;;;;;;4.63;0.60;;;15.30;99.90;;;;;;4986343;28;20133;-43
2022/07/10 05:47:44;;;;;;;8.20;1.35;;;15.30;99.90;;;;;;4987606;28;20042;-45
2022/07/10 05:50:11;;;;;;;3.70;0.75;;;15.30;99.90;;;;;;4986548;28;20357;-43
2022/07/10 05:52:37;;;;;;;6.25;1.23;;;15.40;99.90;;;;;;4981735;28;20707;-43
2022/07/10 05:55:04;;;;;;;2.65;0.50;;;15.40;99.90;;;;;;4985634;28;20108;-44
2022/07/10 05:57:31;;;;;;;4.50;0.77;;;15.40;99.90;;;;;;4986633;28;20487;-43
2022/07/10 05:59:57;;;;;;;5.13;1.17;;;15.40;99.90;;;;;;4981546;28;20424;-44
2022/07/10 06:02:22;;;;;;;4.80;0.85;;;15.40;99.90;;;;;;4980327;28;20044;-42
2022/07/10 06:04:49;;;;;;;8.55;1.02;;;15.50;99.90;;;;;;4978576;28;20137;-43
2022/07/10 06:07:15;;;;;;;6.22;0.70;;;15.50;99.90;;;;;;4981289;28;20049;-45
2022/07/10 06:09:41;;;;;;;3.50;0.80;;;15.50;99.90;;;;;;4984028;28;20042;-43
2022/07/10 06:12:06;;;;;;;8.25;1.13;;;15.50;99.90;;;;;;4979790;28;20038;-44
2022/07/10 06:14:32;;;;;;;10.30;1.15;;;15.60;99.90;;;;;;4982549;28;20353;-43
2022/07/10 06:16:58;;;;;;;6.75;1.05;;;15.60;99.90;;;;;;4978525;28;20076;-43
2022/07/10 06:19:23;;;;;;;2.65;0.50;;;15.60;99.90;;;;;;4983316;28;20061;-42
2022/07/10 06:22:30;;;;;;;3.38;0.68;;;15.60;99.90;;;;;;4983767;28;20046;-43
2022/07/10 06:24:35;;;;;;;6.03;0.77;;;15.60;99.90;;;;;;4983403;28;20079;-43
2022/07/10 06:27:00;;;;;;;4.32;0.82;;;15.50;99.90;;;;;;4980820;28;20517;-42
2022/07/10 06:29:26;;;;;;;4.30;0.90;;;15.50;99.90;;;;;;4980905;28;20053;-43
2022/07/10 06:31:52;;;;;;;7.03;1.02;;;15.50;99.90;;;;;;4980710;28;20026;-42
2022/07/10 06:34:17;;;;;;;8.00;0.93;;;15.40;99.90;;;;;;4978088;28;20467;-42
2022/07/10 06:36:43;;;;;;;3.78;0.63;;;15.40;99.90;;;;;;4982156;28;20038;-43
2022/07/10 06:39:08;;;;;;;5.03;0.60;;;15.40;99.90;;;;;;4976062;28;20118;-43
2022/07/10 06:41:34;;;;;;;4.57;0.68;;;15.40;99.90;;;;;;4980124;28;20050;-44
2022/07/10 06:44:00;;;;;;;6.07;1.00;;;15.50;99.90;;;;;;4978462;28;20436;-48
2022/07/10 06:46:26;;;;;;;5.65;0.82;;;15.60;99.90;;;;;;4978312;28;20093;-45
2022/07/10 06:48:52;;;;;;;5.32;0.60;;;15.60;99.90;;;;;;4981470;28;20058;-42
2022/07/10 06:51:18;;;;;;;3.78;0.88;;;15.60;99.90;;;;;;4985134;28;20511;-42
2022/07/10 06:53:44;;;;;;;3.60;1.02;;;15.70;99.90;;;;;;4986043;28;20038;-44
2022/07/10 06:56:10;;;;;;;3.85;0.70;;;15.70;99.90;;;;;;4984514;28;20069;-43
2022/07/10 06:58:36;;;;;;;5.20;0.63;;;15.80;99.90;;;;;;4987721;28;20042;-45
2022/07/10 07:01:02;;;;;;;4.25;0.73;;;15.80;99.90;;;;;;4986582;28;20034;-42
2022/07/10 07:03:27;;;;;;;5.45;0.60;;;15.80;99.90;;;;;;4981772;28;20217;-43
2022/07/10 07:05:53;;;;;;;4.68;1.20;;;15.80;99.90;;;;;;4981512;28;20050;-42
2022/07/10 07:08:19;;;;;;;3.97;1.00;;;15.90;99.90;;;;;;4982371;28;20126;-43
2022/07/10 07:10:44;;;;;;;3.25;0.70;;;15.90;99.90;;;;;;4982364;28;20060;-42
2022/07/10 07:13:10;;;;;;;3.05;0.50;;;15.90;99.90;;;;;;4985541;28;20125;-45
2022/07/10 07:15:41;;;;;;;4.28;0.57;;;16.00;99.90;;;;;;4985908;28;20112;-41
2022/07/10 07:18:08;;;;;;;4.40;0.60;;;16.10;99.90;;;;;;4984290;28;20138;-40
2022/07/10 07:23:19;;;;;;;2.15;0.70;;;16.20;99.90;;;;;;4983748;28;20599;-42
2022/07/10 07:25:48;;;;;;;3.95;0.80;;;16.10;99.90;;;;;;4985103;28;20046;-40
2022/07/10 07:28:15;;;;;;;2.60;0.63;;;16.10;99.90;;;;;;4981049;28;20569;-40
2022/07/10 07:30:42;;;;;;;2.83;0.70;;;16.00;99.90;;;;;;4988867;28;20511;-42
2022/07/10 07:33:07;;;;;;;3.35;0.50;;;16.00;99.90;;;;;;4985489;28;20493;-41
2022/07/10 07:35:33;;;;;;;1.70;0.30;;;16.00;99.90;;;;;;4985679;28;20046;-39
2022/07/10 07:38:01;;;;;;;1.95;0.40;;;16.10;99.90;;;;;;4984879;28;20057;-40
2022/07/10 07:40:27;;;;;;;4.45;0.52;;;16.10;99.90;;;;;;4987602;28;20042;-39
2022/07/10 07:42:54;;;;;;;1.77;0.30;;;16.20;99.90;;;;;;4988547;28;20034;-47
2022/07/10 07:45:20;;;;;;;2.25;0.52;;;16.20;99.90;;;;;;4985166;28;20733;-39
2022/07/10 07:47:47;;;;;;;3.80;0.60;;;16.20;99.90;;;;;;4985994;28;20038;-39
2022/07/10 07:50:14;;;;;;;3.08;0.60;;;16.30;99.90;;;;;;4984930;28;20468;-38
2022/07/10 07:52:40;;;;;;;4.68;0.77;;;16.30;99.90;;;;;;4982434;28;20463;-40
2022/07/10 07:55:06;;;;;;;4.40;0.80;;;16.30;99.90;;;;;;4979402;28;20165;-39
2022/07/10 07:57:32;;;;;;;2.58;0.60;;;16.30;99.90;;;;;;4984924;28;20046;-40
2022/07/10 07:59:58;;;;;;;1.40;0.45;;;16.20;99.90;;;;;;4981849;28;20030;-38
2022/07/10 08:02:23;;;;;;;1.40;0.45;;;16.20;99.90;;;;;;4983514;28;20042;-39
2022/07/10 08:04:49;;;;;;;6.32;0.43;;;16.20;99.90;;;;;;4979450;28;20062;-39
2022/07/10 08:07:15;;;;;;;2.42;0.40;;;16.20;99.90;;;;;;4985973;28;20490;-40
2022/07/10 08:09:40;;;;;;;2.53;0.60;;;16.20;99.90;;;;;;4979435;28;20649;-41
2022/07/10 08:12:06;;;;;;;2.20;0.52;;;16.30;99.90;;;;;;4984678;28;20121;-40
2022/07/10 08:14:32;;;;;;;1.42;0.40;;;16.30;99.90;;;;;;4983845;28;20519;-41
2022/07/10 08:16:58;;;;;;;2.50;0.40;;;16.40;99.90;;;;;;4984941;28;20104;-39
2022/07/10 08:19:24;;;;;;;1.98;0.40;;;16.50;99.90;;;;;;4986822;28;20055;-39
2022/07/10 08:21:49;;;;;;;2.90;0.50;;;16.60;99.90;;;;;;4988030;28;20041;-39
2022/07/10 08:24:15;;;;;;;4.63;0.60;;;16.70;99.90;;;;;;4986675;28;20121;-39
2022/07/10 08:26:41;;;;;;;2.00;0.40;;;16.80;99.90;;;;;;4986287;28;20448;-42
2022/07/10 08:29:07;;;;;;;4.20;0.70;;;16.90;99.90;;;;;;4988353;28;20490;-40
2022/07/10 08:31:35;;;;;;;3.42;0.60;;;16.90;99.90;;;;;;4988936;28;20038;-39
2022/07/10 08:34:01;;;;;;;2.67;0.38;;;16.90;99.90;;;;;;4997426;28;20030;-42
2022/07/10 08:36:27;;;;;;;2.50;0.63;;;17.00;99.90;;;;;;4983975;28;20046;-40
2022/07/10 08:38:58;;;;;;;2.80;0.60;;;17.10;99.90;;;;;;4986239;28;20030;-41
2022/07/10 08:41:27;;;;;;;3.97;0.77;;;17.10;99.90;;;;;;4981338;28;20138;-40
2022/07/10 08:43:53;;;;;;;4.97;0.77;;;17.20;99.90;;;;;;4986591;28;20574;-40
2022/07/10 08:46:19;;;;;;;1.95;0.50;;;17.30;99.90;;;;;;4982689;28;20133;-40
2022/07/10 08:48:48;;;;;;;2.55;0.65;;;17.30;99.90;;;;;;4983445;28;20049;-40
2022/07/10 08:51:36;;;;;;;1.77;0.40;;;17.40;99.90;;;;;;4973858;28;20034;-42
2022/07/10 08:54:05;;;;;;;1.98;0.50;;;17.40;99.90;;;;;;4983216;28;20165;-40
2022/07/10 08:56:31;;;;;;;3.85;0.65;;;17.40;99.90;;;;;;4984523;28;20065;-40
2022/07/10 08:58:58;;;;;;;2.13;0.50;;;17.30;99.90;;;;;;4978570;28;20045;-40
2022/07/10 09:01:24;;;;;;;3.15;0.75;;;17.20;99.90;;;;;;4985300;28;20069;-41
2022/07/10 09:03:52;;;;;;;3.78;0.50;;;17.20;99.90;;;;;;4982882;28;20523;-40
2022/07/10 09:06:19;;;;;;;3.25;0.50;;;17.10;99.90;;;;;;4981457;28;20528;-40
2022/07/10 09:09:05;;;;;;;3.67;0.70;;;17.10;99.90;;;;;;4985045;28;20065;-43
2022/07/10 09:11:32;;;;;;;2.30;0.47;;;17.00;99.90;;;;;;4982688;28;20133;-40
2022/07/10 09:14:00;;;;;;;3.50;0.68;;;17.00;99.90;;;;;;4983726;28;20125;-39
2022/07/10 09:16:28;;;;;;;2.60;0.57;;;16.90;99.90;;;;;;4979360;28;20582;-40
2022/07/10 09:18:55;;;;;;;5.72;0.70;;;16.90;99.90;;;;;;4970519;28;20069;-43
2022/07/10 09:21:21;;;;;;;1.77;0.70;;;16.90;99.90;;;;;;4998237;28;20050;-39
2022/07/10 09:23:48;;;;;;;2.25;0.52;;;17.00;99.90;;;;;;4979736;28;20041;-41
2022/07/10 09:26:14;;;;;;;3.55;0.60;;;17.10;99.90;;;;;;4983848;28;20041;-41
2022/07/10 09:28:40;;;;;;;1.90;0.50;;;17.20;99.90;;;;;;4982756;28;20046;-40
2022/07/10 09:31:06;;;;;;;3.17;0.60;;;17.50;99.90;;;;;;4985122;28;20091;-40
2022/07/10 09:33:34;;;;;;;3.95;0.50;;;17.70;99.90;;;;;;4985429;28;20039;-42
2022/07/10 09:36:09;;;;;;;3.50;1.25;;;18.00;99.90;;;;;;4999833;28;20129;-41
2022/07/10 09:38:43;;;;;;;2.80;0.60;;;18.20;99.90;;;;;;4987871;28;20046;-40
2022/07/10 09:41:12;;;;;;;3.38;0.50;;;18.40;99.90;;;;;;4986171;28;20117;-40
2022/07/10 09:43:46;;;;;;;1.52;0.50;;;18.50;99.90;;;;;;4984201;28;20042;-41
2022/07/10 09:46:11;;;;;;;1.77;0.50;;;18.50;99.90;;;;;;4981327;28;20031;-41
2022/07/10 09:48:37;;;;;;;2.17;0.50;;;18.40;99.90;;;;;;4984361;28;20590;-40
2022/07/10 09:51:06;;;;;;;1.58;0.50;;;18.40;99.90;;;;;;4987127;28;20041;-42
2022/07/10 09:53:33;;;;;;;1.73;0.50;;;18.30;99.90;;;;;;4984966;28;20132;-40
2022/07/10 09:56:01;;;;;;;3.92;0.60;;;18.20;99.90;;;;;;4985686;28;20080;-39
2022/07/10 09:58:31;;;;;;;2.22;0.60;;;18.10;99.90;;;;;;4983605;28;20519;-42
2022/07/10 10:00:58;;;;;;;5.13;0.60;;;18.10;99.90;;;;;;4984655;28;20080;-40
2022/07/10 10:03:25;;;;;;;1.95;0.80;;;18.00;99.90;;;;;;4978223;28;20061;-41
2022/07/10 10:06:02;;;;;;;2.33;0.60;;;18.00;99.90;;;;;;4983074;28;20046;-41
2022/07/10 10:08:32;;;;;;;1.65;0.57;;;18.00;99.90;;;;;;4983638;28;20476;-41
2022/07/10 10:10:59;;;;;;;2.08;0.70;;;18.00;99.90;;;;;;4985231;28;20130;-41
2022/07/10 10:13:33;;;;;;;2.78;0.65;;;18.10;99.90;;;;;;4978248;28;20047;-42
2022/07/10 10:15:59;;;;;;;4.55;0.77;;;18.10;99.90;;;;;;4985308;28;20445;-41
2022/07/10 10:18:26;;;;;;;3.38;0.63;;;18.00;99.90;;;;;;4981911;28;20062;-41
2022/07/10 10:20:53;;;;;;;2.72;0.70;;;17.90;99.90;;;;;;4983962;28;20525;-42
2022/07/10 10:23:21;;;;;;;1.70;0.60;;;17.90;99.90;;;;;;4983420;28;20038;-39
2022/07/10 10:25:51;;;;;;;2.53;0.80;;;17.90;99.90;;;;;;4988657;28;20161;-39
2022/07/10 10:28:23;;;;;;;4.38;0.70;;;18.00;99.90;;;;;;4985549;28;20050;-41
2022/07/10 10:30:51;;;;;;;1.53;0.80;;;18.10;99.90;;;;;;4985991;28;20093;-42
2022/07/10 10:33:32;;;;;;;2.58;0.80;;;18.30;99.90;;;;;;4984378;28;20601;-39
2022/07/10 10:36:02;;;;;;;2.92;0.70;;;18.50;99.90;;;;;;4988699;28;20505;-39
2022/07/10 10:38:51;;;;;;;2.92;0.60;;;18.70;99.90;;;;;;4985516;28;20118;-42
2022/07/10 10:41:23;;;;;;;4.95;0.70;;;19.10;99.90;;;;;;4990487;28;20073;-40
2022/07/10 10:44:07;;;;;;;7.25;0.90;;;19.40;99.90;;;;;;4986866;28;20049;-40
2022/07/10 10:46:33;;;;;;;6.85;0.70;;;19.60;99.90;;;;;;4984489;28;20060;-42
2022/07/10 10:49:06;;;;;;;3.42;0.93;;;19.50;99.90;;;;;;4983593;28;20050;-41
2022/07/10 10:52:08;;;;;;;2.63;0.60;;;19.30;99.90;;;;;;4985916;28;20133;-40
2022/07/10 10:54:56;;;;;;;2.70;0.60;;;18.90;99.90;;;;;;4932920;28;20065;-41
2022/07/10 10:57:23;;;;;;;2.90;0.80;;;18.90;99.90;;;;;;4988229;28;20338;-41
2022/07/10 10:59:51;;;;;;;3.70;0.80;;;19.00;99.90;;;;;;4989193;28;20050;-40
2022/07/10 11:02:26;;;;;;;4.70;0.80;;;19.30;99.90;;;;;;4988820;28;20042;-40
2022/07/10 11:05:12;;;;;;;3.28;0.60;;;19.50;99.90;;;;;;4985415;28;20152;-40
2022/07/10 11:08:03;;;;;;;2.15;0.60;;;19.60;99.90;;;;;;4985667;28;20054;-40
2022/07/10 11:10:32;;;;;;;2.90;0.88;;;19.60;99.90;;;;;;4985696;28;20065;-42
2022/07/10 11:13:07;;;;;;;2.72;0.50;;;19.60;99.90;;;;;;4986573;28;20046;-41
2022/07/10 11:15:34;;;;;;;1.25;0.50;;;19.80;99.90;;;;;;4987455;28;20522;-41
2022/07/10 11:18:07;;;;;;;2.30;0.50;;;19.80;99.30;;;;;;4989091;28;20480;-42
2022/07/10 11:20:50;;;;;;;1.90;0.50;;;19.80;98.90;;;;;;4984620;28;20042;-40
2022/07/10 11:23:52;;;;;;;3.67;0.80;;;19.60;99.20;;;;;;4986561;28;20050;-40
2022/07/10 11:26:35;;;;;;;2.28;0.50;;;19.40;99.60;;;;;;4987371;28;20185;-40
2022/07/10 11:29:05;;;;;;;2.17;0.50;;;19.30;99.90;;;;;;5000768;28;20564;-41
2022/07/10 11:31:34;;;;;;;3.03;0.75;;;19.40;99.90;;;;;;4984895;28;20053;-42
2022/07/10 11:34:00;;;;;;;2.22;0.60;;;19.40;99.90;;;;;;4984809;28;20042;-42
2022/07/10 11:36:32;;;;;;;3.45;0.65;;;19.20;99.90;;;;;;4990752;28;20089;-40
2022/07/10 11:39:03;;;;;;;1.60;0.60;;;19.00;99.90;;;;;;4988172;28;20595;-42
2022/07/10 11:41:30;;;;;;;3.08;0.70;;;18.80;99.90;;;;;;4989514;28;20042;-42
2022/07/10 11:44:03;;;;;;;2.17;0.77;;;18.80;99.90;;;;;;4988232;28;20096;-40
2022/07/10 11:46:33;;;;;;;2.40;0.60;;;18.80;99.90;;;;;;4986110;28;20078;-41
2022/07/10 11:49:04;;;;;;;2.00;0.63;;;18.90;99.90;;;;;;4986663;28;20085;-41
2022/07/10 11:51:31;;;;;;;2.95;0.80;;;19.10;99.90;;;;;;4986583;28;20050;-41
2022/07/10 11:54:02;;;;;;;4.25;0.70;;;19.30;99.90;;;;;;4986422;28;20035;-41
2022/07/10 11:56:36;;;;;;;3.47;0.50;;;19.50;99.90;;;;;;4988785;28;20051;-41
2022/07/10 11:59:09;;;;;;;5.38;0.60;;;19.70;99.20;;;;;;4984136;28;20587;-41
2022/07/10 12:01:49;;;;;;;4.80;0.98;;;19.70;99.30;;;;;;4981097;28;20047;-40
2022/07/10 12:04:16;;;;;;;3.40;0.82;;;19.80;98.60;;;;;;4986414;28;20054;-40
2022/07/10 12:06:47;;;;;;;3.92;0.60;;;19.70;98.30;;;;;;4983334;28;20130;-41
2022/07/10 12:09:14;;;;;;;2.72;0.70;;;19.70;98.20;;;;;;4983099;28;20425;-40
2022/07/10 12:11:42;;;;;;;3.47;0.63;;;19.60;98.30;;;;;;4985639;28;20158;-41
2022/07/10 12:14:14;;;;;;;7.90;0.70;;;19.50;98.50;;;;;;4983990;28;20053;-41
2022/07/10 12:16:42;;;;;;;6.03;0.70;;;19.50;98.20;;;;;;4986959;28;20038;-42
2022/07/10 12:19:10;;;;;;;1.95;0.82;;;19.40;98.30;;;;;;4986708;28;20045;-43
2022/07/10 12:21:36;;;;;;;2.42;0.60;;;19.30;98.50;;;;;;4986365;28;20046;-42
2022/07/10 12:24:02;;;;;;;4.10;0.60;;;19.30;98.20;;;;;;4984018;28;20038;-40
2022/07/10 12:26:34;;;;;;;3.65;0.70;;;19.30;98.20;;;;;;4985284;28;20488;-40
2022/07/10 12:29:00;;;;;;;2.60;0.68;;;19.30;98.20;;;;;;4986144;28;20030;-42
2022/07/10 12:31:28;;;;;;;4.18;0.65;;;19.40;97.90;;;;;;4987418;28;20144;-40
2022/07/10 12:34:02;;;;;;;3.05;0.47;;;19.40;97.80;;;;;;4984172;28;20030;-42
2022/07/10 12:37:09;;;;;;;2.97;0.60;;;19.40;97.30;;;;;;4984902;28;20034;-40
2022/07/10 12:39:38;;;;;;;3.08;0.50;;;19.40;97.30;;;;;;4927999;29;20576;-41
2022/07/10 12:42:06;;;;;;;2.72;0.98;;;19.30;97.50;;;;;;4975452;28;20109;-40
2022/07/10 12:44:34;;;;;;;2.28;0.50;;;19.40;97.60;;;;;;4982919;28;20084;-43
2022/07/10 12:47:14;;;;;;;1.95;0.40;;;19.40;96.80;;;;;;4982810;28;20046;-40
2022/07/10 12:50:02;;;;;;;1.48;0.50;;;19.50;96.00;;;;;;4984075;28;20065;-40
2022/07/10 12:52:29;;;;;;;1.98;0.60;;;19.50;95.80;;;;;;4986602;28;20042;-40
2022/07/10 12:55:09;;;;;;;2.00;0.50;;;19.50;95.70;;;;;;4989629;28;20034;-40
2022/07/10 12:57:56;;;;;;;1.83;0.47;;;19.60;94.80;;;;;;4983505;28;20051;-43